Time;durP1;ratioP1;P1;durP2;ratioP2;P2;SDS_P1;SDS_P2;PMS_P1;PMS_P2;Temp;Humidity;BMP_temperature;BMP_pressure;BME280_temperature;BME280_humidity;BME280_pressure;Samples;Min_cycle;Max_cycle;Signal;HPM_P1;HPM_P2
2023/01/23 00:01:29;;;;;;;34.17;19.77;;;2.30;99.90;;;;;;4880768;29;20040;-70
2023/01/23 00:03:56;;;;;;;42.97;24.50;;;2.30;99.90;;;;;;4890361;29;20036;-69
2023/01/23 00:06:23;;;;;;;31.90;20.50;;;2.30;99.90;;;;;;4915245;29;20502;-68
2023/01/23 00:08:50;;;;;;;44.87;25.23;;;2.30;99.90;;;;;;4898689;29;20044;-69
2023/01/23 00:11:22;;;;;;;35.77;22.47;;;2.30;99.90;;;;;;4899044;29;20055;-68
2023/01/23 00:13:49;;;;;;;;;;;2.30;99.90;;;;;;4890293;29;20051;-69
2023/01/23 00:16:18;;;;;;;47.03;24.20;;;2.30;99.90;;;;;;4913422;29;19918;-69
2023/01/23 00:18:45;;;;;;;40.60;23.40;;;2.20;99.90;;;;;;4881964;29;20051;-70
2023/01/23 00:21:16;;;;;;;36.47;21.77;;;2.20;99.90;;;;;;4891894;29;20039;-69
2023/01/23 00:23:44;;;;;;;35.10;20.10;;;2.20;99.90;;;;;;4884669;29;20048;-68
2023/01/23 00:26:14;;;;;;;41.50;21.67;;;2.20;99.90;;;;;;4879743;29;20032;-68
2023/01/23 00:28:42;;;;;;;38.47;22.03;;;2.20;99.90;;;;;;4880318;29;20055;-70
2023/01/23 00:31:19;;;;;;;40.33;23.37;;;2.20;99.90;;;;;;4910008;29;20047;-71
2023/01/23 00:33:45;;;;;;;33.63;20.23;;;2.20;99.90;;;;;;4906505;29;20201;-69
2023/01/23 00:36:13;;;;;;;38.97;21.27;;;2.20;99.90;;;;;;4844065;29;1070982;-69
2023/01/23 00:38:41;;;;;;;36.10;21.67;;;2.20;99.90;;;;;;4900429;29;20036;-69
2023/01/23 00:41:07;;;;;;;36.37;21.07;;;2.20;99.90;;;;;;4880244;29;20051;-71
2023/01/23 00:43:34;;;;;;;42.23;24.43;;;2.20;99.90;;;;;;4911234;29;20510;-68
2023/01/23 00:46:00;;;;;;;45.77;24.53;;;2.20;99.90;;;;;;4916957;29;20032;-69
2023/01/23 00:48:27;;;;;;;34.93;19.53;;;2.20;99.90;;;;;;4911034;29;20024;-70
2023/01/23 00:50:53;;;;;;;34.37;19.83;;;2.20;99.90;;;;;;4891880;29;20408;-69
2023/01/23 00:53:19;;;;;;;35.53;20.50;;;2.20;99.90;;;;;;4900468;29;20039;-72
2023/01/23 00:55:46;;;;;;;31.00;20.67;;;2.20;99.90;;;;;;4879328;29;20040;-71
2023/01/23 00:58:12;;;;;;;46.30;22.30;;;2.20;99.90;;;;;;4910596;29;20067;-69
2023/01/23 01:00:39;;;;;;;36.17;20.53;;;2.20;99.90;;;;;;4893200;29;20044;-71
2023/01/23 01:03:06;;;;;;;32.30;18.83;;;2.20;99.90;;;;;;4888831;29;20036;-70
2023/01/23 01:05:34;;;;;;;34.77;20.03;;;2.20;99.90;;;;;;4892061;29;20484;-71
2023/01/23 01:08:04;;;;;;;38.47;21.30;;;2.20;99.90;;;;;;4910192;29;20047;-70
2023/01/23 01:10:31;;;;;;;43.10;23.00;;;2.20;99.90;;;;;;4895894;29;20036;-70
2023/01/23 01:13:00;;;;;;;45.27;24.00;;;2.20;99.90;;;;;;4878023;29;20522;-69
2023/01/23 01:15:27;;;;;;;47.33;26.23;;;2.20;99.90;;;;;;4903784;29;20036;-71
2023/01/23 01:17:56;;;;;;;45.20;24.83;;;2.20;99.90;;;;;;4867827;29;20047;-72
2023/01/23 01:20:25;;;;;;;37.67;22.40;;;2.20;99.90;;;;;;4894354;29;20036;-69
2023/01/23 01:22:53;;;;;;;44.53;23.97;;;2.20;99.90;;;;;;4883620;29;20387;-71
2023/01/23 01:25:19;;;;;;;45.83;27.10;;;2.20;99.90;;;;;;4900263;29;20024;-72
2023/01/23 01:27:46;;;;;;;50.13;24.80;;;2.30;99.90;;;;;;4896097;29;20039;-70
2023/01/23 01:30:13;;;;;;;38.67;22.60;;;2.30;99.90;;;;;;4883407;29;20040;-69
2023/01/23 01:32:41;;;;;;;55.40;28.33;;;2.30;99.90;;;;;;4883956;29;20058;-71
2023/01/23 01:35:09;;;;;;;64.40;33.03;;;2.30;99.90;;;;;;4874461;29;20044;-69
2023/01/23 01:37:37;;;;;;;49.60;27.53;;;2.30;99.90;;;;;;4890073;29;20044;-69
2023/01/23 01:40:06;;;;;;;47.13;26.50;;;2.30;99.90;;;;;;4883746;29;20047;-71
2023/01/23 01:42:41;;;;;;;52.23;27.90;;;2.30;99.90;;;;;;4895017;29;20040;-69
2023/01/23 01:45:45;;;;;;;55.43;28.70;;;2.30;99.90;;;;;;4909509;29;20031;-69
2023/01/23 01:48:13;;;;;;;59.23;31.47;;;2.30;99.90;;;;;;4914571;29;20047;-71
2023/01/23 01:50:39;;;;;;;41.90;25.37;;;2.30;99.90;;;;;;4900415;29;20040;-69
2023/01/23 01:53:05;;;;;;;48.13;26.43;;;2.30;99.90;;;;;;4889796;29;20031;-72
2023/01/23 01:55:32;;;;;;;50.20;25.63;;;2.30;99.90;;;;;;4894478;29;20028;-69
2023/01/23 01:57:59;;;;;;;56.33;30.33;;;2.30;99.90;;;;;;4894224;29;20043;-71
2023/01/23 02:00:25;;;;;;;51.93;28.13;;;2.30;99.90;;;;;;4882045;29;20028;-70
2023/01/23 02:03:01;;;;;;;44.17;24.60;;;2.30;99.90;;;;;;4890519;29;20031;-69
2023/01/23 02:05:27;;;;;;;46.63;24.43;;;2.30;99.90;;;;;;4897687;29;20028;-69
2023/01/23 02:07:58;;;;;;;35.23;20.07;;;2.30;99.90;;;;;;4894995;29;20047;-71
2023/01/23 02:10:24;;;;;;;44.70;25.70;;;2.30;99.90;;;;;;4901887;29;20044;-70
2023/01/23 02:12:52;;;;;;;32.87;21.37;;;2.40;99.90;;;;;;4883901;29;20063;-70
2023/01/23 02:15:21;;;;;;;40.90;25.13;;;2.40;99.90;;;;;;4894493;29;20039;-70
2023/01/23 02:17:50;;;;;;;40.37;24.00;;;2.40;99.90;;;;;;4898284;29;20059;-69
2023/01/23 02:20:22;;;;;;;55.17;30.52;;;2.40;99.90;;;;;;4898964;29;20055;-70
2023/01/23 02:23:05;;;;;;;52.97;27.45;;;2.40;99.90;;;;;;4913231;29;20503;-70
2023/01/23 02:25:34;;;;;;;39.65;24.05;;;2.40;99.90;;;;;;4884075;29;20036;-73
2023/01/23 02:28:01;;;;;;;42.37;22.43;;;2.40;99.90;;;;;;4898835;29;20043;-71
2023/01/23 02:30:29;;;;;;;53.20;28.17;;;2.40;99.90;;;;;;4905294;29;20518;-70
2023/01/23 02:33:06;;;;;;;37.97;22.70;;;2.40;99.90;;;;;;4881847;29;20436;-69
2023/01/23 02:35:34;;;;;;;44.73;24.33;;;2.40;99.90;;;;;;4879658;29;20056;-70
2023/01/23 02:38:07;;;;;;;42.53;24.85;;;2.40;99.90;;;;;;4906158;29;20463;-69
2023/01/23 02:40:36;;;;;;;46.47;25.33;;;2.40;99.90;;;;;;4916479;29;20300;-70
2023/01/23 02:43:07;;;;;;;33.73;21.13;;;2.40;99.90;;;;;;4883330;29;20038;-70
2023/01/23 02:45:35;;;;;;;32.03;20.43;;;2.50;99.90;;;;;;4901344;29;20036;-69
2023/01/23 02:48:04;;;;;;;29.13;19.70;;;2.50;99.90;;;;;;4900507;29;20624;-70
2023/01/23 02:50:31;;;;;;;42.40;23.47;;;2.50;99.90;;;;;;4884502;29;20034;-69
2023/01/23 02:52:57;;;;;;;34.47;21.63;;;2.50;99.90;;;;;;4898918;29;20480;-71
2023/01/23 02:55:32;;;;;;;47.35;26.85;;;2.50;99.90;;;;;;4883301;29;20024;-68
2023/01/23 03:00:45;;;;;;;42.93;24.50;;;2.50;99.90;;;;;;4912377;29;20036;-69
2023/01/23 03:03:12;;;;;;;36.73;21.90;;;2.50;99.90;;;;;;4894672;29;20042;-70
2023/01/23 03:05:38;;;;;;;36.10;21.70;;;2.50;99.90;;;;;;4899441;29;20051;-70
2023/01/23 03:08:05;;;;;;;53.50;27.30;;;2.50;99.90;;;;;;4901149;29;20038;-71
2023/01/23 03:10:31;;;;;;;53.33;29.83;;;2.50;99.90;;;;;;4890675;29;20040;-71
2023/01/23 03:13:02;;;;;;;46.60;24.97;;;2.50;99.90;;;;;;4912938;29;20039;-69
2023/01/23 03:15:29;;;;;;;45.03;25.93;;;2.50;99.90;;;;;;4881748;29;20059;-71
2023/01/23 03:17:56;;;;;;;39.00;23.00;;;2.50;99.90;;;;;;4903640;29;20078;-69
2023/01/23 03:20:25;;;;;;;44.90;26.00;;;2.50;99.90;;;;;;4915748;29;20504;-71
2023/01/23 03:22:52;;;;;;;49.67;28.40;;;2.60;99.90;;;;;;4882764;29;20495;-71
2023/01/23 03:25:19;;;;;;;54.70;29.00;;;2.60;99.90;;;;;;4897449;29;20039;-71
2023/01/23 03:27:46;;;;;;;42.40;23.47;;;2.60;99.90;;;;;;4889375;29;20046;-70
2023/01/23 03:30:15;;;;;;;39.67;24.40;;;2.60;99.90;;;;;;4898203;29;20036;-70
2023/01/23 03:32:43;;;;;;;45.38;24.45;;;2.60;99.90;;;;;;4898127;29;20933;-71
2023/01/23 03:35:13;;;;;;;51.17;26.83;;;2.60;99.90;;;;;;4894981;29;20067;-72
2023/01/23 03:37:40;;;;;;;60.73;32.97;;;2.60;99.90;;;;;;4902061;29;20044;-69
2023/01/23 03:42:55;;;;;;;39.00;24.10;;;2.60;99.90;;;;;;4897925;29;20027;-70
2023/01/23 03:45:26;;;;;;;45.60;24.97;;;2.60;99.90;;;;;;4864725;29;20051;-69
2023/01/23 03:47:53;;;;;;;40.70;23.53;;;2.60;99.90;;;;;;4889008;29;20043;-70
2023/01/23 03:50:20;;;;;;;48.30;26.87;;;2.60;99.90;;;;;;4884117;29;20032;-70
2023/01/23 03:52:46;;;;;;;39.43;24.23;;;2.60;99.90;;;;;;4894716;29;21188;-69
2023/01/23 03:55:12;;;;;;;40.80;25.13;;;2.60;99.90;;;;;;4876139;29;20051;-70
2023/01/23 03:57:40;;;;;;;55.95;30.67;;;2.60;99.90;;;;;;4903405;29;20491;-70
2023/01/23 04:00:32;;;;;;;49.75;25.85;;;2.60;99.90;;;;;;4893496;29;20051;-70
2023/01/23 04:03:03;;;;;;;44.20;23.93;;;2.60;99.90;;;;;;4886376;29;20383;-69
2023/01/23 04:05:29;;;;;;;44.40;24.87;;;2.60;99.90;;;;;;4887399;29;20039;-70
2023/01/23 04:07:55;;;;;;;52.70;28.47;;;2.60;99.90;;;;;;4907936;29;20031;-69
2023/01/23 04:10:23;;;;;;;43.53;25.10;;;2.60;99.90;;;;;;4881922;29;20042;-70
2023/01/23 04:12:53;;;;;;;46.73;26.70;;;2.60;99.90;;;;;;4895428;29;20052;-70
2023/01/23 04:15:20;;;;;;;48.47;27.77;;;2.60;99.90;;;;;;4866274;29;20044;-70
2023/01/23 04:17:47;;;;;;;38.22;23.42;;;2.60;99.90;;;;;;4885290;29;20403;-71
2023/01/23 04:20:14;;;;;;;38.57;24.10;;;2.60;99.90;;;;;;4887270;29;20109;-69
2023/01/23 04:22:42;;;;;;;41.90;25.03;;;2.60;99.90;;;;;;4880883;29;20047;-70
2023/01/23 04:25:09;;;;;;;48.80;26.93;;;2.60;99.90;;;;;;4876780;29;20376;-70
2023/01/23 04:27:35;;;;;;;43.77;27.23;;;2.60;99.90;;;;;;4880036;29;20032;-71
2023/01/23 04:30:03;;;;;;;49.53;27.43;;;2.60;99.90;;;;;;4870553;29;20039;-72
2023/01/23 04:32:29;;;;;;;53.13;27.53;;;2.60;99.90;;;;;;4892330;29;20051;-69
2023/01/23 04:34:56;;;;;;;51.77;30.27;;;2.60;99.90;;;;;;4879913;29;20067;-69
2023/01/23 04:37:24;;;;;;;41.90;25.33;;;2.60;99.90;;;;;;4901456;29;20024;-72
2023/01/23 04:39:51;;;;;;;51.47;30.93;;;2.60;99.90;;;;;;4913467;29;20395;-69
2023/01/23 04:42:18;;;;;;;50.93;26.23;;;2.60;99.90;;;;;;4874956;29;20047;-69
2023/01/23 04:44:51;;;;;;;;;;;2.60;99.90;;;;;;4883599;29;20035;-70
2023/01/23 04:47:32;;;;;;;45.30;26.27;;;2.60;99.90;;;;;;4918747;29;20311;-70
2023/01/23 04:50:00;;;;;;;42.80;24.57;;;2.60;99.90;;;;;;4883950;29;20491;-69
2023/01/23 04:52:30;;;;;;;42.97;24.77;;;2.60;99.90;;;;;;4872731;29;20649;-69
2023/01/23 04:54:57;;;;;;;49.53;29.30;;;2.60;99.90;;;;;;4889927;29;20028;-70
2023/01/23 04:57:23;;;;;;;48.57;28.10;;;2.60;99.90;;;;;;4885362;29;20040;-69
2023/01/23 04:59:56;;;;;;;51.60;27.80;;;2.60;99.90;;;;;;4896539;29;20039;-72
2023/01/23 05:02:22;;;;;;;45.77;28.53;;;2.60;99.90;;;;;;4895329;29;20031;-70
2023/01/23 05:04:49;;;;;;;48.77;29.13;;;2.60;99.90;;;;;;4893309;29;20048;-70
2023/01/23 05:07:16;;;;;;;50.17;27.83;;;2.60;99.90;;;;;;4902684;29;20032;-71
2023/01/23 05:09:54;;;;;;;47.00;27.83;;;2.60;99.90;;;;;;4884199;29;20056;-70
2023/01/23 05:12:21;;;;;;;45.30;28.33;;;2.60;99.90;;;;;;4878465;29;20040;-69
2023/01/23 05:14:47;;;;;;;45.53;25.17;;;2.60;99.90;;;;;;4881766;29;20032;-71
2023/01/23 05:17:14;;;;;;;32.20;22.83;;;2.60;99.90;;;;;;4905886;29;20387;-69
2023/01/23 05:19:51;;;;;;;52.87;30.80;;;2.60;99.90;;;;;;4908449;29;20036;-70
2023/01/23 05:22:17;;;;;;;48.93;27.63;;;2.60;99.90;;;;;;4880076;29;20479;-71
2023/01/23 05:24:43;;;;;;;46.37;27.40;;;2.60;99.90;;;;;;4884693;29;20385;-69
2023/01/23 05:27:10;;;;;;;36.57;22.47;;;2.70;99.90;;;;;;4907127;29;20054;-69
2023/01/23 05:29:40;;;;;;;45.87;27.07;;;2.70;99.90;;;;;;4897785;29;20035;-70
2023/01/23 05:32:12;;;;;;;46.15;26.13;;;2.60;99.90;;;;;;4905182;29;20125;-68
2023/01/23 05:34:38;;;;;;;49.93;28.00;;;2.70;99.90;;;;;;4902671;29;20052;-70
2023/01/23 05:37:19;;;;;;;44.87;27.43;;;2.70;99.90;;;;;;4885562;29;20090;-68
2023/01/23 05:39:49;;;;;;;39.37;23.57;;;2.70;99.90;;;;;;4904637;29;20039;-70
2023/01/23 05:42:15;;;;;;;41.23;23.87;;;2.70;99.90;;;;;;4891799;29;20491;-69
2023/01/23 05:44:59;;;;;;;50.67;29.00;;;2.70;99.90;;;;;;4897269;29;20628;-69
2023/01/23 05:47:30;;;;;;;45.22;26.13;;;2.70;99.90;;;;;;4885719;29;20043;-69
2023/01/23 05:49:57;;;;;;;43.47;27.37;;;2.70;99.90;;;;;;4901278;29;20036;-69
2023/01/23 05:52:29;;;;;;;34.00;22.53;;;2.70;99.90;;;;;;4895946;29;20039;-72
2023/01/23 05:54:55;;;;;;;30.17;19.87;;;2.70;99.90;;;;;;4898463;29;20162;-69
2023/01/23 05:57:22;;;;;;;41.77;23.20;;;2.70;99.90;;;;;;4889479;29;20039;-69
2023/01/23 05:59:51;;;;;;;63.17;35.57;;;2.70;99.90;;;;;;4892991;29;20032;-69
2023/01/23 06:02:46;;;;;;;76.50;37.73;;;2.80;99.90;;;;;;4888731;29;20039;-70
2023/01/23 06:05:15;;;;;;;42.03;27.00;;;2.70;99.90;;;;;;4889909;29;20048;-70
2023/01/23 06:08:11;;;;;;;39.50;24.57;;;2.70;99.90;;;;;;4883922;29;20173;-69
2023/01/23 06:10:37;;;;;;;35.17;22.87;;;2.70;99.90;;;;;;4886115;29;20507;-71
2023/01/23 06:13:04;;;;;;;42.77;25.73;;;2.70;99.90;;;;;;4884392;29;20043;-70
2023/01/23 06:15:30;;;;;;;47.77;26.60;;;2.70;99.90;;;;;;4897444;29;20051;-69
2023/01/23 06:17:59;;;;;;;47.20;28.13;;;2.70;99.90;;;;;;4885826;29;20039;-69
2023/01/23 06:20:26;;;;;;;47.67;28.13;;;2.70;99.90;;;;;;4888912;29;20357;-70
2023/01/23 06:22:52;;;;;;;55.47;29.47;;;2.70;99.90;;;;;;4916967;29;20043;-70
2023/01/23 06:25:20;;;;;;;41.07;26.07;;;2.70;99.90;;;;;;4887198;29;20372;-69
2023/01/23 06:27:47;;;;;;;47.77;29.07;;;2.70;99.90;;;;;;4900100;29;20036;-70
2023/01/23 06:30:14;;;;;;;40.53;25.83;;;2.70;99.90;;;;;;4894490;29;20386;-69
2023/01/23 06:32:43;;;;;;;46.80;28.37;;;2.70;99.90;;;;;;4903387;29;20032;-70
2023/01/23 06:35:11;;;;;;;47.50;28.37;;;2.70;99.90;;;;;;4896610;29;20235;-70
2023/01/23 06:37:40;;;;;;;49.30;29.67;;;2.70;99.90;;;;;;4894130;29;20032;-71
2023/01/23 06:40:12;;;;;;;44.40;26.70;;;2.80;99.90;;;;;;4914554;29;20036;-69
2023/01/23 06:42:41;;;;;;;48.83;26.47;;;2.80;99.90;;;;;;4909752;29;20262;-69
2023/01/23 06:45:09;;;;;;;45.90;28.83;;;2.80;99.90;;;;;;4901272;29;20057;-68
2023/01/23 06:47:35;;;;;;;50.50;30.90;;;2.70;99.90;;;;;;4884873;29;20039;-68
2023/01/23 06:50:02;;;;;;;45.47;28.73;;;2.80;99.90;;;;;;4907302;29;20035;-69
2023/01/23 06:52:32;;;;;;;51.43;32.33;;;2.80;99.90;;;;;;4896894;29;20032;-69
2023/01/23 06:54:59;;;;;;;50.43;30.37;;;2.80;99.90;;;;;;4906219;29;20040;-69
2023/01/23 06:57:26;;;;;;;55.47;32.92;;;2.80;99.90;;;;;;4898519;29;20051;-70
2023/01/23 06:59:52;;;;;;;57.83;33.33;;;2.80;99.90;;;;;;4899503;29;20040;-69
2023/01/23 07:02:20;;;;;;;55.97;34.43;;;2.80;99.90;;;;;;4881958;29;20040;-69
2023/01/23 07:04:50;;;;;;;53.10;31.67;;;2.80;99.90;;;;;;4903015;29;20546;-69
2023/01/23 07:07:17;;;;;;;57.00;35.83;;;2.70;99.90;;;;;;4905751;29;20039;-69
2023/01/23 07:09:45;;;;;;;43.90;30.27;;;2.80;99.90;;;;;;4900266;29;20040;-69
2023/01/23 07:12:18;;;;;;;46.35;29.40;;;2.80;99.90;;;;;;4897200;29;20031;-70
2023/01/23 07:14:45;;;;;;;58.23;33.67;;;2.70;99.90;;;;;;4897191;29;20036;-69
2023/01/23 07:17:16;;;;;;;59.27;38.20;;;2.80;99.90;;;;;;4882755;29;20427;-70
2023/01/23 07:19:42;;;;;;;49.20;30.93;;;2.80;99.90;;;;;;4884988;29;20032;-71
2023/01/23 07:22:15;;;;;;;50.17;31.20;;;2.80;99.90;;;;;;4878915;29;20040;-73
2023/01/23 07:24:41;;;;;;;52.60;32.40;;;2.80;99.90;;;;;;4902343;29;20059;-71
2023/01/23 07:27:07;;;;;;;54.90;33.20;;;2.80;99.90;;;;;;4914094;29;20479;-70
2023/01/23 07:29:34;;;;;;;55.53;30.13;;;2.80;99.90;;;;;;4919976;29;20051;-70
2023/01/23 07:32:00;;;;;;;51.20;31.17;;;2.80;99.90;;;;;;4880439;29;20535;-70
2023/01/23 07:34:27;;;;;;;44.37;27.97;;;2.80;99.90;;;;;;4889283;29;20047;-70
2023/01/23 07:36:53;;;;;;;47.67;30.33;;;2.80;99.90;;;;;;4899892;29;20024;-70
2023/01/23 07:39:19;;;;;;;48.30;28.20;;;2.90;99.90;;;;;;4918047;29;20036;-70
2023/01/23 07:41:46;;;;;;;46.37;28.63;;;2.80;99.90;;;;;;4895550;29;20046;-70
2023/01/23 07:44:18;;;;;;;46.63;29.17;;;2.90;99.90;;;;;;4908847;29;20475;-69
2023/01/23 07:46:45;;;;;;;45.97;30.37;;;2.80;99.90;;;;;;4914899;29;20032;-71
2023/01/23 07:49:12;;;;;;;47.87;27.93;;;2.80;99.90;;;;;;4895117;29;21589;-70
2023/01/23 07:51:39;;;;;;;48.30;29.93;;;2.90;99.90;;;;;;4877233;29;20428;-69
2023/01/23 07:54:06;;;;;;;39.77;25.23;;;2.90;99.90;;;;;;4872652;29;20040;-70
2023/01/23 07:56:32;;;;;;;51.07;30.57;;;2.90;99.90;;;;;;4903748;29;20039;-70
2023/01/23 07:59:00;;;;;;;55.87;33.67;;;2.90;99.90;;;;;;4902266;29;20039;-70
2023/01/23 08:01:26;;;;;;;52.35;32.13;;;2.90;99.90;;;;;;4867995;29;20040;-71
2023/01/23 08:03:53;;;;;;;53.90;34.00;;;2.90;99.90;;;;;;4895689;29;20040;-70
2023/01/23 08:06:19;;;;;;;48.93;31.27;;;2.90;99.90;;;;;;4891511;29;20056;-71
2023/01/23 08:08:49;;;;;;;53.17;34.07;;;2.90;99.90;;;;;;4899760;29;20036;-70
2023/01/23 08:11:15;;;;;;;50.33;31.02;;;2.90;99.90;;;;;;4899481;29;20054;-71
2023/01/23 08:13:42;;;;;;;47.07;28.97;;;2.90;99.90;;;;;;4888921;29;20047;-69
2023/01/23 08:16:08;;;;;;;45.80;30.57;;;3.00;99.90;;;;;;4883133;29;20039;-70
2023/01/23 08:18:34;;;;;;;46.77;30.10;;;3.00;99.90;;;;;;4904009;29;20479;-70
2023/01/23 08:21:02;;;;;;;46.17;28.50;;;3.00;99.90;;;;;;4899898;29;20062;-71
2023/01/23 08:23:31;;;;;;;50.97;29.43;;;3.00;99.90;;;;;;4890728;29;20036;-70
2023/01/23 08:26:00;;;;;;;41.73;26.50;;;3.00;99.90;;;;;;4916491;29;20038;-72
2023/01/23 08:28:27;;;;;;;43.92;29.48;;;3.00;99.90;;;;;;4903297;29;20028;-70
2023/01/23 08:30:53;;;;;;;54.20;32.42;;;3.10;99.90;;;;;;4906587;29;21717;-70
2023/01/23 08:33:20;;;;;;;49.55;30.65;;;3.10;99.90;;;;;;4887966;29;20028;-71
2023/01/23 08:35:51;;;;;;;43.07;26.97;;;3.10;99.90;;;;;;4892278;29;20049;-71
2023/01/23 08:38:18;;;;;;;49.20;31.60;;;3.20;99.90;;;;;;4917740;29;20046;-71
2023/01/23 08:40:46;;;;;;;42.77;28.57;;;3.10;99.90;;;;;;4918651;29;20037;-71
2023/01/23 08:43:13;;;;;;;48.30;30.20;;;3.20;99.90;;;;;;4904622;29;20028;-72
2023/01/23 08:45:41;;;;;;;45.27;28.13;;;3.20;99.90;;;;;;4905100;29;20035;-69
2023/01/23 08:48:08;;;;;;;43.17;25.77;;;3.20;99.90;;;;;;4890757;29;20408;-70
2023/01/23 08:50:34;;;;;;;47.00;28.42;;;3.20;99.90;;;;;;4908013;29;20106;-70
2023/01/23 08:53:00;;;;;;;48.63;28.70;;;3.30;99.90;;;;;;4902580;29;20032;-71
2023/01/23 08:55:27;;;;;;;46.50;28.83;;;3.30;99.90;;;;;;4904355;29;20032;-70
2023/01/23 08:57:54;;;;;;;46.30;29.10;;;3.30;99.90;;;;;;4907226;29;20051;-69
2023/01/23 09:00:21;;;;;;;43.45;27.17;;;3.40;99.90;;;;;;4877015;29;20032;-69
2023/01/23 09:02:47;;;;;;;43.23;29.10;;;3.40;99.90;;;;;;4898817;29;20028;-71
2023/01/23 09:05:14;;;;;;;53.67;32.83;;;3.40;99.90;;;;;;4893134;29;20034;-70
2023/01/23 09:07:40;;;;;;;44.00;27.50;;;3.40;99.90;;;;;;4903014;29;20364;-70
2023/01/23 09:10:07;;;;;;;40.35;26.73;;;3.40;99.90;;;;;;4901514;29;20039;-71
2023/01/23 09:12:33;;;;;;;43.23;28.23;;;3.50;99.90;;;;;;4911265;29;20051;-71
2023/01/23 09:15:00;;;;;;;44.87;30.50;;;3.50;99.90;;;;;;4888669;29;20411;-70
2023/01/23 09:17:26;;;;;;;44.60;28.40;;;3.50;99.90;;;;;;4917968;29;20031;-68
2023/01/23 09:19:52;;;;;;;45.78;29.45;;;3.50;99.90;;;;;;4884996;29;20040;-69
2023/01/23 09:22:19;;;;;;;38.55;25.50;;;3.60;99.90;;;;;;4911068;29;20020;-71
2023/01/23 09:24:45;;;;;;;44.60;27.05;;;3.60;99.90;;;;;;4914087;29;20040;-69
2023/01/23 09:27:12;;;;;;;39.80;26.60;;;3.60;99.90;;;;;;4882927;29;20040;-69
2023/01/23 09:29:38;;;;;;;48.08;29.02;;;3.70;99.90;;;;;;4893049;29;20051;-70
2023/01/23 09:32:05;;;;;;;50.05;30.05;;;3.70;99.90;;;;;;4872496;29;20043;-70
2023/01/23 09:34:31;;;;;;;37.13;26.02;;;3.70;99.90;;;;;;4897324;29;20051;-68
2023/01/23 09:36:57;;;;;;;46.10;30.10;;;3.70;99.90;;;;;;4903332;29;20040;-68
2023/01/23 09:39:23;;;;;;;44.90;28.17;;;3.80;99.90;;;;;;4902942;29;20036;-70
2023/01/23 09:41:50;;;;;;;46.90;29.48;;;3.70;99.90;;;;;;4903150;29;20807;-69
2023/01/23 09:44:51;;;;;;;42.28;26.55;;;3.80;99.90;;;;;;4896950;29;20044;-70
2023/01/23 09:47:26;;;;;;;39.63;26.20;;;3.80;99.90;;;;;;4884906;29;20042;-70
2023/01/23 09:50:16;;;;;;;42.28;26.17;;;3.80;99.90;;;;;;4907481;29;20058;-69
2023/01/23 09:52:53;;;;;;;42.78;27.90;;;3.90;99.90;;;;;;4903463;29;20028;-69
2023/01/23 09:55:41;;;;;;;38.20;24.58;;;3.90;99.90;;;;;;4874151;29;20031;-71
2023/01/23 09:58:45;;;;;;;41.33;26.17;;;4.00;99.90;;;;;;4885507;29;20399;-70
2023/01/23 10:01:12;;;;;;;34.97;23.33;;;4.00;99.90;;;;;;4901789;29;20044;-71
2023/01/23 10:03:39;;;;;;;43.57;28.53;;;4.00;99.90;;;;;;4910139;29;20527;-68
2023/01/23 10:06:19;;;;;;;40.80;25.55;;;4.10;99.90;;;;;;4904213;29;20514;-70
2023/01/23 10:09:19;;;;;;;32.28;23.33;;;4.00;99.90;;;;;;4872108;29;20048;-69
2023/01/23 10:12:08;;;;;;;38.90;25.55;;;4.10;99.90;;;;;;4895585;29;20070;-69
2023/01/23 10:14:34;;;;;;;36.55;23.65;;;4.20;99.90;;;;;;4904891;29;20400;-69
2023/01/23 10:17:13;;;;;;;35.72;24.30;;;4.20;99.90;;;;;;4907040;29;20043;-69
2023/01/23 10:20:05;;;;;;;36.55;23.30;;;4.20;99.90;;;;;;4908196;29;20047;-68
2023/01/23 10:22:40;;;;;;;32.22;23.40;;;4.20;99.90;;;;;;4919472;29;20051;-69
2023/01/23 10:25:12;;;;;;;29.98;21.95;;;4.30;99.90;;;;;;4903599;29;20032;-70
2023/01/23 10:27:42;;;;;;;29.83;20.38;;;4.30;99.90;;;;;;4900718;29;20036;-69
2023/01/23 10:30:29;;;;;;;36.25;24.20;;;4.40;99.90;;;;;;4891185;29;20384;-68
2023/01/23 10:32:56;;;;;;;33.28;21.92;;;4.40;99.90;;;;;;4909473;29;20052;-69
2023/01/23 10:35:43;;;;;;;34.47;22.70;;;4.40;99.90;;;;;;4912010;29;20068;-70
2023/01/23 10:38:33;;;;;;;35.72;23.30;;;4.50;99.90;;;;;;4915784;29;20036;-69
2023/01/23 10:43:52;;;;;;;36.95;24.80;;;4.60;99.90;;;;;;4913267;29;20048;-69
2023/01/23 10:46:22;;;;;;;35.72;25.40;;;4.60;99.90;;;;;;4903381;29;20286;-69
2023/01/23 10:48:52;;;;;;;35.15;25.73;;;4.60;99.90;;;;;;4904903;29;20028;-69
2023/01/23 10:51:36;;;;;;;38.13;25.20;;;4.60;99.90;;;;;;4916502;29;20036;-69
2023/01/23 10:54:17;;;;;;;40.97;26.02;;;4.60;99.90;;;;;;4899494;29;20032;-69
2023/01/23 10:56:47;;;;;;;39.75;25.70;;;4.60;99.90;;;;;;4902383;29;20043;-69
2023/01/23 10:59:20;;;;;;;40.08;28.48;;;4.60;99.90;;;;;;4905338;29;20043;-69
2023/01/23 11:02:12;;;;;;;36.72;26.38;;;4.60;99.90;;;;;;4901908;29;20044;-69
2023/01/23 11:04:40;;;;;;;37.42;26.17;;;4.60;99.90;;;;;;4884742;29;20040;-71
2023/01/23 11:07:16;;;;;;;40.13;26.85;;;4.70;99.90;;;;;;4879187;29;20042;-71
2023/01/23 11:09:53;;;;;;;35.13;25.35;;;4.70;99.90;;;;;;4925907;29;20375;-69
2023/01/23 11:12:21;;;;;;;38.45;25.55;;;4.70;99.90;;;;;;4897835;29;20044;-72
2023/01/23 11:14:48;;;;;;;34.53;25.20;;;4.80;99.90;;;;;;4913220;29;20049;-69
2023/01/23 11:17:21;;;;;;;35.85;24.27;;;4.80;99.90;;;;;;4902960;29;20083;-69
2023/01/23 11:19:52;;;;;;;38.00;26.63;;;4.90;99.90;;;;;;4902407;29;20040;-71
2023/01/23 11:22:35;;;;;;;38.38;25.20;;;4.90;99.90;;;;;;4901162;29;20415;-69
2023/01/23 11:25:26;;;;;;;31.20;23.70;;;4.90;99.90;;;;;;4906284;29;20039;-69
2023/01/23 11:28:26;;;;;;;33.03;24.48;;;4.90;99.90;;;;;;4921120;29;20545;-70
2023/01/23 11:31:08;;;;;;;33.95;24.23;;;4.80;99.90;;;;;;4897192;29;20048;-69
2023/01/23 11:33:37;;;;;;;33.30;23.77;;;4.80;99.90;;;;;;4899447;29;20046;-72
2023/01/23 11:36:18;;;;;;;38.38;25.65;;;4.80;99.90;;;;;;4901787;29;20060;-69
2023/01/23 11:39:15;;;;;;;31.77;23.70;;;4.80;99.90;;;;;;4916662;29;20043;-69
2023/01/23 11:41:44;;;;;;;39.72;25.13;;;4.80;99.90;;;;;;4902786;29;20032;-70
2023/01/23 11:44:17;;;;;;;31.67;23.13;;;4.80;99.90;;;;;;4915673;29;20039;-69
2023/01/23 11:47:17;;;;;;;32.97;23.48;;;4.80;99.90;;;;;;4920255;29;20043;-72
2023/01/23 11:50:05;;;;;;;30.58;23.55;;;4.80;99.90;;;;;;4919720;29;20032;-69
2023/01/23 11:52:49;;;;;;;30.90;23.10;;;4.80;99.90;;;;;;4902908;29;20039;-70
2023/01/23 11:55:37;;;;;;;32.83;24.33;;;4.80;99.90;;;;;;4891310;29;20047;-68
2023/01/23 11:58:55;;;;;;;31.00;24.20;;;4.80;99.90;;;;;;4917778;29;20035;-69
2023/01/23 12:01:33;;;;;;;30.83;22.13;;;4.70;99.90;;;;;;4893572;29;20401;-68
2023/01/23 12:04:09;;;;;;;29.73;22.48;;;4.70;99.90;;;;;;4918094;29;20704;-69
2023/01/23 12:06:44;;;;;;;30.35;22.27;;;4.70;99.90;;;;;;4906094;29;20027;-68
2023/01/23 12:09:15;;;;;;;29.73;21.90;;;4.70;99.90;;;;;;4903888;29;20031;-69
2023/01/23 12:12:04;;;;;;;28.30;21.52;;;4.80;99.90;;;;;;4893529;29;20522;-69
2023/01/23 12:15:08;;;;;;;33.97;22.05;;;4.80;99.90;;;;;;4903694;29;20040;-71
2023/01/23 12:18:03;;;;;;;34.67;23.77;;;4.90;99.90;;;;;;4868319;29;20253;-69
2023/01/23 12:21:04;;;;;;;32.75;22.98;;;4.90;99.90;;;;;;4880175;29;20039;-69
2023/01/23 12:23:36;;;;;;;31.95;24.02;;;4.90;99.90;;;;;;4887668;29;20050;-68
2023/01/23 12:26:23;;;;;;;30.13;22.58;;;4.90;99.90;;;;;;4887165;29;20039;-69
2023/01/23 12:29:23;;;;;;;34.70;24.67;;;5.00;99.90;;;;;;4908745;29;20356;-70
2023/01/23 12:32:13;;;;;;;28.08;21.40;;;5.00;99.90;;;;;;4912139;29;20051;-69
2023/01/23 12:34:58;;;;;;;30.30;22.23;;;5.10;99.90;;;;;;4888581;29;21315;-69
2023/01/23 12:37:34;;;;;;;32.35;24.00;;;5.20;99.90;;;;;;4903608;29;20036;-68
2023/01/23 12:40:27;;;;;;;26.60;21.58;;;5.20;99.90;;;;;;4907714;29;20039;-69
2023/01/23 12:43:12;;;;;;;28.20;21.20;;;5.20;99.90;;;;;;4896299;29;20077;-70
2023/01/23 12:45:51;;;;;;;28.60;22.88;;;5.20;99.90;;;;;;4913877;29;20046;-68
2023/01/23 12:49:16;;;;;;;26.42;20.73;;;5.20;99.90;;;;;;4902789;29;20032;-68
2023/01/23 12:51:48;;;;;;;27.85;21.10;;;5.30;99.90;;;;;;4855836;29;20429;-68
2023/01/23 12:54:20;;;;;;;29.55;22.48;;;5.20;99.90;;;;;;4854046;29;20045;-69
2023/01/23 12:56:47;;;;;;;29.67;22.60;;;5.20;99.90;;;;;;4888971;29;20083;-69
2023/01/23 12:59:34;;;;;;;28.85;20.80;;;5.20;99.90;;;;;;4915546;29;20048;-68
2023/01/23 13:02:28;;;;;;;29.38;20.70;;;5.30;99.90;;;;;;4887897;29;20684;-68
2023/01/23 13:05:09;;;;;;;35.13;23.27;;;5.40;99.90;;;;;;4895171;29;20040;-69
2023/01/23 13:08:02;;;;;;;31.55;23.50;;;5.40;99.90;;;;;;4910288;29;20040;-68
2023/01/23 13:13:32;;;;;;;26.98;18.70;;;5.50;99.90;;;;;;4897274;29;20455;-71